CDT,Max TemperatureF,Mean TemperatureF,Min TemperatureF,Max Dew PointF,MeanDew PointF,Min DewpointF,Max Humidity, Mean Humidity, Min Humidity, Max Sea Level PressureIn, Mean Sea Level PressureIn, Min Sea Level PressureIn, Max VisibilityMiles, Mean VisibilityMiles, Min VisibilityMiles, Max Wind SpeedMPH, Mean Wind SpeedMPH, Max Gust SpeedMPH,PrecipitationIn, CloudCover, Events, WindDirDegrees
2012-6-1,71,52,32,43,34,27,92,59,21,30.01,29.89,29.78,10,10,10,6,2,,0.00,0,,30
2012-6-2,75,56,36,46,40,34,97,58,24,29.76,29.72,29.70,10,10,10,8,2,17,0.00,1,,297
2012-6-3,78,59,41,59,48,39,96,66,27,29.86,29.81,29.75,10,10,9,7,1,,0.00,3,Rain,50
2012-6-4,77,63,51,61,55,49,100,82,44,29.99,29.94,29.86,10,8,0,6,1,,0.00,4,Fog,83
2012-6-5,78,60,46,63,52,44,100,81,44,30.06,30.02,29.98,10,7,1,8,1,,0.09,3,Rain-Thunderstorm,100
2012-6-6,73,60,48,60,54,48,97,81,55,30.12,30.10,30.06,10,8,1,8,2,20,0.14,2,Rain-Thunderstorm,161
2012-6-7,79,62,46,60,53,45,100,80,50,30.14,30.09,29.99,10,7,0,9,1,17,0.00,3,Fog,193
2012-6-8,81,69,57,64,61,55,90,71,50,29.98,29.86,29.73,10,10,10,12,3,20,0.00,4,Rain,203
2012-6-9,87,76,66,61,58,56,73,53,36,29.76,29.72,29.68,10,10,10,12,5,21,0.00,0,,195
2012-6-10,89,78,68,65,59,55,81,54,39,29.76,29.70,29.61,10,10,6,18,8,30,0.06,1,Rain-Thunderstorm,183
2012-6-11,77,66,55,65,56,40,94,74,42,29.90,29.73,29.67,10,10,4,15,7,25,0.09,5,Rain-Thunderstorm,231
2012-6-12,66,54,42,45,40,38,92,60,38,30.16,30.08,29.92,10,10,10,8,6,17,0.00,4,,287
2012-6-13,73,54,36,51,45,34,93,63,37,30.16,30.10,30.01,10,10,10,12,3,22,0.00,2,Rain,172
2012-6-14,68,58,53,58,53,46,96,85,60,30.06,29.94,29.84,10,7,0,22,10,30,2.16,6,Fog-Rain-Thunderstorm,151
2012-6-15,81,70,60,65,60,57,93,72,48,30.03,29.99,29.92,10,10,8,7,3,,0.00,3,,207
2012-6-16,77,65,53,67,61,53,100,85,68,30.03,29.85,29.75,10,7,0,9,2,,0.26,4,Fog-Rain-Thunderstorm,171
2012-6-17,77,64,52,59,54,50,96,77,44,29.83,29.75,29.55,10,8,0,12,3,23,0.07,2,Fog-Rain-Thunderstorm,186
2012-6-18,86,74,57,69,62,55,97,77,37,29.69,29.51,29.44,10,10,6,12,5,17,0.14,3,Rain-Thunderstorm,193
2012-6-19,84,70,55,72,62,54,100,85,65,29.86,29.76,29.66,10,9,2,13,4,25,0.58,6,Rain-Thunderstorm,143
2012-6-20,80,72,64,72,67,61,97,89,64,29.84,29.74,29.67,10,7,0,15,6,23,1.59,8,Fog-Rain-Thunderstorm,197
2012-6-21,73,66,55,60,56,50,94,77,44,29.98,29.90,29.82,10,10,10,9,3,20,0.00,5,,264
2012-6-22,77,62,48,58,52,48,97,76,41,30.01,29.99,29.96,10,8,2,8,1,,0.00,1,,285
2012-6-23,75,60,48,63,55,46,100,86,68,30.02,29.98,29.94,10,8,1,8,1,,0.19,4,Rain,151
2012-6-24,73,62,50,64,57,48,100,79,41,30.16,30.04,29.96,10,7,0,10,2,16,0.02,3,Fog,36
2012-6-25,75,60,44,54,48,41,96,65,38,30.23,30.16,30.07,10,10,10,8,2,,0.00,0,,156
2012-6-26,77,60,44,54,50,44,100,66,42,30.08,29.98,29.81,10,9,2,9,3,18,0.00,0,,167
2012-6-27,86,74,63,70,61,53,96,66,51,29.81,29.73,29.67,10,10,5,13,6,17,0.00,0,,164
2012-6-28,82,72,61,68,60,52,97,70,34,29.90,29.82,29.74,10,7,1,8,1,17,0.00,1,,282
2012-6-29,86,68,51,59,56,50,96,63,35,29.90,29.84,29.76,10,10,10,10,2,20,0.00,0,,250
2012-6-30,84,66,51,62,55,50,94,65,34,29.92,29.86,29.81,10,10,5,5,1,,0.00,0,,280